Time;durP1;ratioP1;P1;durP2;ratioP2;P2;SDS_P1;SDS_P2;PMS_P1;PMS_P2;Temp;Humidity;BMP_temperature;BMP_pressure;BME280_temperature;BME280_humidity;BME280_pressure;Samples;Min_cycle;Max_cycle;Signal;HPM_P1;HPM_P2
2021/12/01 00:00:48;;;;;;;;;;;;;;;10.59;69.00;101072.78;5111572;28;20512;-83
2021/12/01 00:03:14;;;;;;;8.48;5.63;;;;;;;10.58;69.32;101079.72;5109500;28;20005;-85
2021/12/01 00:05:40;;;;;;;6.88;5.10;;;;;;;10.19;69.60;101018.16;5138459;27;20076;-84
2021/12/01 00:08:11;;;;;;;7.72;5.75;;;;;;;10.66;68.57;101079.25;5110025;27;20028;-84
2021/12/01 00:10:41;;;;;;;8.55;5.57;;;;;;;10.46;69.11;101089.41;5090422;28;20023;-84
2021/12/01 00:13:10;;;;;;;8.13;6.00;;;;;;;10.49;69.17;101092.19;5108853;27;20055;-85
2021/12/01 00:15:36;;;;;;;8.10;5.78;;;;;;;10.51;68.90;101098.41;5114940;27;20024;-85
2021/12/01 00:18:03;;;;;;;9.48;5.60;;;;;;;10.13;69.23;101038.69;5110799;28;20053;-86
2021/12/01 00:20:29;;;;;;;8.13;6.10;;;;;;;10.14;69.13;101027.44;5111219;28;20038;-86
2021/12/01 00:22:55;;;;;;;7.55;5.60;;;;;;;10.48;69.26;101079.97;5093697;27;20687;-86
2021/12/01 00:25:23;;;;;;;8.57;5.53;;;;;;;10.29;68.63;101050.94;5092371;28;20036;-86
2021/12/01 00:27:51;;;;;;;7.25;5.47;;;;;;;10.56;68.86;101096.06;5104462;28;20023;-86
2021/12/01 00:30:17;;;;;;;7.57;5.30;;;;;;;9.94;68.43;101005.34;5097423;28;20034;-86
2021/12/01 00:32:43;;;;;;;7.82;5.75;;;;;;;10.45;68.73;101074.56;5093997;28;20030;-86
2021/12/01 00:35:10;;;;;;;7.25;5.47;;;;;;;10.42;69.40;101097.00;5116103;27;20111;-85
2021/12/01 00:37:36;;;;;;;6.35;5.03;;;;;;;9.92;69.29;101026.13;5119760;27;20106;-85
2021/12/01 00:40:06;;;;;;;7.72;5.85;;;;;;;10.42;68.80;101097.00;5092158;28;20030;-85
2021/12/01 00:42:32;;;;;;;6.80;5.10;;;;;;;10.48;69.08;101107.81;5110868;28;20020;-85
2021/12/01 00:45:01;;;;;;;8.07;5.60;;;;;;;10.33;69.49;101094.72;5094569;28;20027;-85
2021/12/01 00:47:41;;;;;;;6.75;5.07;;;;;;;10.18;68.71;101052.88;5098253;28;20100;-84
2021/12/01 00:50:08;;;;;;;7.50;5.20;;;;;;;10.41;69.19;101088.22;5077810;28;20111;-86
2021/12/01 00:52:33;;;;;;;7.22;5.35;;;;;;;10.27;68.77;101074.34;5073304;28;20035;-85
2021/12/01 00:54:59;;;;;;;8.40;5.35;;;;;;;10.41;69.49;101082.13;5110762;27;20031;-84
2021/12/01 00:57:25;;;;;;;7.28;5.55;;;;;;;10.34;68.56;101057.38;5093864;28;20108;-84
2021/12/01 00:59:52;;;;;;;6.00;4.80;;;;;;;10.21;68.29;101040.03;5100990;28;20047;-84
2021/12/01 01:02:17;;;;;;;6.60;5.30;;;;;;;10.29;69.66;101082.28;5110461;28;20085;-85
2021/12/01 01:04:43;;;;;;;7.63;5.18;;;;;;;10.21;68.26;101060.91;5084627;28;20101;-85
2021/12/01 01:07:09;;;;;;;6.65;5.20;;;;;;;10.13;68.97;101047.41;5081871;28;20571;-86
2021/12/01 01:09:34;;;;;;;7.35;5.03;;;;;;;10.07;69.51;101017.44;5091459;28;20035;-85
2021/12/01 01:17:36;;;;;;;7.15;5.47;;;;;;;10.28;69.36;101043.91;5099459;28;20031;-84
2021/12/01 01:20:04;;;;;;;6.47;5.05;;;;;;;10.22;68.40;101036.59;5098951;28;20035;-84
2021/12/01 01:22:30;;;;;;;7.43;5.45;;;;;;;10.20;68.86;101033.00;5085434;28;20073;-85
2021/12/01 01:24:56;;;;;;;6.63;5.03;;;;;;;10.04;68.96;100992.06;5113971;28;20026;-86
2021/12/01 01:27:23;;;;;;;7.72;5.38;;;;;;;9.97;69.20;101006.44;5110892;28;20028;-85
2021/12/01 01:29:49;;;;;;;6.88;4.85;;;;;;;10.18;68.81;101030.31;5124839;28;20038;-85
2021/12/01 01:32:15;;;;;;;6.15;4.70;;;;;;;10.03;69.08;101012.84;5106321;28;20034;-86
2021/12/01 01:34:40;;;;;;;7.53;5.45;;;;;;;10.12;68.93;101010.78;5089852;28;20097;-85
2021/12/01 01:37:06;;;;;;;9.32;4.85;;;;;;;10.01;68.54;100993.56;5090130;28;20048;-85
2021/12/01 01:39:32;;;;;;;6.18;4.82;;;;;;;9.92;68.71;100960.03;5108079;28;20042;-85
2021/12/01 01:41:57;;;;;;;6.45;4.82;;;;;;;10.10;68.21;100986.31;5112811;28;20032;-84
2021/12/01 01:44:23;;;;;;;7.00;5.45;;;;;;;10.06;68.37;100993.06;5114457;28;20077;-85
2021/12/01 01:46:49;;;;;;;6.00;4.90;;;;;;;10.23;68.28;101017.53;5114494;28;20019;-85
2021/12/01 01:49:24;;;;;;;6.60;4.88;;;;;;;10.07;68.39;100999.16;5102603;27;20027;-85
2021/12/01 01:51:50;;;;;;;6.72;5.13;;;;;;;10.13;68.49;101008.25;5114178;28;20077;-85
2021/12/01 01:54:17;;;;;;;6.55;4.88;;;;;;;10.04;68.27;100979.03;5083850;28;20486;-85
2021/12/01 01:56:43;;;;;;;6.65;5.13;;;;;;;10.10;68.28;101018.53;5111217;27;20031;-85
2021/12/01 01:59:09;;;;;;;8.98;5.72;;;;;;;10.07;67.80;100991.34;5129651;27;20075;-85
2021/12/01 02:01:44;;;;;;;;;;;;;;;10.38;68.37;101028.03;5094479;28;20054;-85
2021/12/01 02:04:17;;;;;;;7.38;4.70;;;;;;;10.09;68.54;101003.66;5103627;28;19912;-85
2021/12/01 02:06:47;;;;;;;4.97;4.20;;;;;;;10.30;67.95;101024.06;5081982;28;20028;-85
2021/12/01 02:09:13;;;;;;;7.35;5.57;;;;;;;9.98;68.82;100989.09;5129939;27;20083;-85
2021/12/01 02:11:39;;;;;;;6.43;4.97;;;;;;;10.04;68.64;101010.31;5114071;28;20027;-85
2021/12/01 02:14:05;;;;;;;6.93;5.10;;;;;;;10.07;68.93;101015.72;5088889;28;20039;-85
2021/12/01 02:16:31;;;;;;;7.03;4.80;;;;;;;9.96;69.22;101015.06;5093942;28;20035;-85
2021/12/01 02:18:57;;;;;;;7.28;4.97;;;;;;;9.90;68.37;100991.22;5097588;28;20040;-85
2021/12/01 02:21:28;;;;;;;7.43;5.00;;;;;;;9.97;68.28;101010.78;5105197;28;20042;-84
2021/12/01 02:23:56;;;;;;;6.75;4.88;;;;;;;10.05;68.02;101009.50;5098072;28;20478;-85
2021/12/01 02:26:23;;;;;;;7.00;4.85;;;;;;;9.79;69.60;100959.28;5103605;28;20445;-85
2021/12/01 02:28:54;;;;;;;6.85;4.80;;;;;;;9.94;67.95;100974.94;5101355;28;20042;-85
2021/12/01 02:31:22;;;;;;;6.65;4.95;;;;;;;10.09;67.92;101027.13;5112874;27;20024;-85
2021/12/01 02:33:48;;;;;;;6.60;5.03;;;;;;;10.16;67.85;101018.00;5130084;27;20031;-85
2021/12/01 02:36:15;;;;;;;6.50;4.95;;;;;;;10.01;68.32;101007.50;5129688;27;20512;-85
2021/12/01 02:38:42;;;;;;;7.60;4.75;;;;;;;10.06;68.04;101023.47;5076195;28;20035;-85
2021/12/01 02:41:09;;;;;;;6.38;4.95;;;;;;;9.71;68.36;100981.38;5093919;28;20040;-85
2021/12/01 02:43:35;;;;;;;7.80;5.07;;;;;;;9.72;68.48;100971.88;5075313;28;20017;-86
2021/12/01 02:46:01;;;;;;;8.18;5.05;;;;;;;9.48;68.33;100904.41;5105764;28;20031;-86
2021/12/01 02:48:27;;;;;;;5.95;4.70;;;;;;;9.72;68.73;100958.84;5100085;27;20028;-85
2021/12/01 02:50:53;;;;;;;8.00;5.35;;;;;;;9.77;69.55;100986.97;5103634;28;20035;-85
2021/12/01 02:53:24;;;;;;;6.93;5.13;;;;;;;9.91;69.36;100993.03;5094758;28;20557;-85
2021/12/01 02:55:56;;;;;;;6.82;5.00;;;;;;;9.77;69.13;101000.00;5109219;28;20028;-85
2021/12/01 02:58:23;;;;;;;6.60;5.05;;;;;;;9.99;69.17;101010.06;5092660;28;20036;-85
2021/12/01 03:00:52;;;;;;;5.55;4.68;;;;;;;9.90;69.54;101021.63;5084983;28;20034;-84
2021/12/01 03:03:18;;;;;;;7.25;5.10;;;;;;;9.94;69.53;101031.44;5094881;28;20020;-85
2021/12/01 03:05:48;;;;;;;6.32;4.97;;;;;;;9.85;70.37;101036.13;5094750;28;20088;-85
2021/12/01 03:08:15;;;;;;;7.05;4.80;;;;;;;9.85;69.88;101049.16;5110265;28;20036;-85
2021/12/01 03:10:46;;;;;;;7.07;5.03;;;;;;;9.95;69.67;101036.75;5116429;27;20050;-85
2021/12/01 03:13:13;;;;;;;6.40;4.68;;;;;;;9.72;69.62;100993.63;5128996;27;20046;-85
2021/12/01 03:15:39;;;;;;;6.57;4.97;;;;;;;9.96;69.73;101035.03;5092921;28;20019;-85
2021/12/01 03:18:04;;;;;;;5.68;4.75;;;;;;;9.81;70.15;101015.88;5095666;28;20123;-85
2021/12/01 03:20:30;;;;;;;5.80;4.80;;;;;;;9.76;69.75;101000.84;5109080;28;20024;-84
2021/12/01 03:23:10;;;;;;;6.45;4.32;;;;;;;9.93;70.47;101037.50;5105077;28;20094;-84
2021/12/01 03:25:36;;;;;;;5.75;4.72;;;;;;;9.87;69.98;101042.31;5107104;27;20035;-84
2021/12/01 03:28:02;;;;;;;;;;;;;;;9.87;70.17;101040.63;5135146;28;20024;-84
2021/12/01 03:30:33;;;;;;;5.80;4.60;;;;;;;9.88;69.39;101038.91;5116521;28;20006;-83
2021/12/01 03:33:00;;;;;;;5.93;4.40;;;;;;;9.77;69.90;101033.03;5112189;28;20104;-85
2021/12/01 03:35:26;;;;;;;7.80;4.70;;;;;;;9.73;69.42;101029.31;5112441;28;20023;-84
2021/12/01 03:37:51;;;;;;;6.75;4.70;;;;;;;9.79;70.06;101050.56;5074132;28;20422;-85
2021/12/01 03:40:17;;;;;;;5.97;4.70;;;;;;;9.94;69.20;101057.53;5083643;28;20039;-85
2021/12/01 03:42:44;;;;;;;6.32;4.82;;;;;;;9.63;69.99;101013.00;5067563;27;20121;-86
2021/12/01 03:45:11;;;;;;;5.50;4.28;;;;;;;9.81;69.56;101039.34;5110326;27;20042;-84
2021/12/01 03:47:36;;;;;;;5.70;4.70;;;;;;;9.85;69.96;101029.19;5090326;28;20024;-86
2021/12/01 03:50:03;;;;;;;6.07;4.53;;;;;;;9.92;69.22;101035.66;5094366;28;20042;-84
2021/12/01 03:52:28;;;;;;;6.15;4.43;;;;;;;9.88;69.42;101005.88;5112486;28;20037;-83
2021/12/01 03:54:54;;;;;;;5.88;4.50;;;;;;;9.96;68.92;101037.66;5092017;28;20116;-86
2021/12/01 03:57:20;;;;;;;5.45;4.30;;;;;;;9.77;69.41;101035.63;5105505;28;20047;-84
2021/12/01 03:59:46;;;;;;;5.70;4.20;;;;;;;9.81;69.54;101052.38;5098846;28;20122;-83
2021/12/01 04:02:12;;;;;;;7.25;4.47;;;;;;;9.78;70.08;101043.56;5121052;27;20032;-84
2021/12/01 04:04:38;;;;;;;5.78;4.38;;;;;;;9.61;69.94;101012.94;5103072;28;20026;-84
2021/12/01 04:07:04;;;;;;;5.68;4.43;;;;;;;9.64;69.11;100954.88;5096790;27;20024;-85
2021/12/01 04:09:30;;;;;;;6.20;4.60;;;;;;;9.95;68.93;101031.53;5085217;28;20115;-84
2021/12/01 04:11:56;;;;;;;5.53;4.10;;;;;;;9.74;69.07;101025.03;5103188;28;20057;-84
2021/12/01 04:14:22;;;;;;;5.70;4.53;;;;;;;9.77;70.05;101020.88;5083638;28;20036;-84
2021/12/01 04:16:48;;;;;;;5.60;4.47;;;;;;;9.69;69.64;101014.28;5112103;27;20102;-85
2021/12/01 04:19:13;;;;;;;5.88;4.68;;;;;;;9.46;69.90;100989.44;5086146;28;20058;-85
2021/12/01 04:21:40;;;;;;;4.78;4.22;;;;;;;9.72;69.69;101011.00;5111563;28;20063;-85
2021/12/01 04:24:06;;;;;;;5.25;4.20;;;;;;;9.92;69.17;101025.22;5110992;28;20111;-85
2021/12/01 04:26:33;;;;;;;4.97;4.13;;;;;;;9.78;69.22;101024.41;5093275;28;20031;-85
2021/12/01 04:29:00;;;;;;;5.30;4.05;;;;;;;9.82;69.31;101033.31;5111657;28;20053;-85
2021/12/01 04:31:28;;;;;;;4.95;4.15;;;;;;;9.81;68.79;101036.72;5092439;28;20481;-87
2021/12/01 04:33:55;;;;;;;6.70;4.40;;;;;;;9.93;69.34;101041.00;5114080;27;20023;-86
2021/12/01 04:36:21;;;;;;;5.95;4.28;;;;;;;9.67;69.54;101028.97;5108471;28;20111;-86
2021/12/01 04:38:47;;;;;;;5.70;4.72;;;;;;;9.83;69.03;101035.13;5099332;28;20012;-85
2021/12/01 04:41:13;;;;;;;6.75;4.53;;;;;;;9.56;69.15;101011.75;5110026;28;20455;-86
2021/12/01 04:43:40;;;;;;;5.20;4.20;;;;;;;9.54;68.86;101019.47;5099420;27;20024;-85
2021/12/01 04:46:06;;;;;;;4.88;4.15;;;;;;;9.54;69.64;101032.50;5090251;28;20028;-85
2021/12/01 04:48:32;;;;;;;6.22;4.30;;;;;;;9.62;69.85;101032.09;5092588;28;20016;-85
2021/12/01 04:50:58;;;;;;;;;;;;;;;9.72;69.49;101037.97;5111463;28;20105;-85
2021/12/01 04:53:26;;;;;;;6.50;4.43;;;;;;;9.63;69.64;101032.19;5092808;28;20386;-85
2021/12/01 04:55:53;;;;;;;5.25;4.15;;;;;;;9.60;69.56;101041.53;5099602;28;20493;-84
2021/12/01 04:58:20;;;;;;;6.93;4.70;;;;;;;9.52;69.65;101035.81;5105907;28;20590;-85
2021/12/01 05:00:46;;;;;;;6.43;4.70;;;;;;;9.55;68.83;101002.13;5075809;28;20423;-85
2021/12/01 05:03:11;;;;;;;;;;;;;;;9.64;69.86;101051.34;5091535;28;20080;-85
2021/12/01 05:05:37;;;;;;;5.65;4.20;;;;;;;9.31;69.23;101005.03;5100836;28;19915;-85
2021/12/01 05:08:03;;;;;;;5.72;4.45;;;;;;;9.42;69.29;101026.53;5093271;28;20041;-85
2021/12/01 05:10:30;;;;;;;5.40;4.50;;;;;;;9.64;68.69;101052.22;5101094;28;20035;-84
2021/12/01 05:12:55;;;;;;;5.15;4.18;;;;;;;9.38;69.86;101021.94;5090605;28;20028;-85
2021/12/01 05:15:21;;;;;;;5.32;4.25;;;;;;;9.52;68.89;101052.34;5092034;28;20039;-85
2021/12/01 05:17:47;;;;;;;6.13;4.90;;;;;;;9.49;69.32;101038.25;5110312;28;20069;-85
2021/12/01 05:20:13;;;;;;;5.55;4.60;;;;;;;9.27;70.03;101039.50;5090543;28;20032;-85
2021/12/01 05:22:39;;;;;;;7.00;4.80;;;;;;;9.42;69.82;101038.66;5084252;28;20027;-85
2021/12/01 05:25:05;;;;;;;5.47;4.20;;;;;;;9.53;69.35;101050.66;5114737;28;20501;-86
2021/12/01 05:27:31;;;;;;;5.93;4.47;;;;;;;9.35;69.66;101012.19;5076637;28;20020;-85
2021/12/01 05:29:57;;;;;;;4.85;4.10;;;;;;;9.63;69.32;101055.66;5071391;28;20037;-85
2021/12/01 05:32:23;;;;;;;6.75;4.32;;;;;;;9.13;69.87;100985.63;5095164;28;20038;-84
2021/12/01 05:34:49;;;;;;;5.85;4.40;;;;;;;9.48;69.48;101047.78;5092522;28;20016;-85
2021/12/01 05:37:15;;;;;;;5.78;4.53;;;;;;;9.17;69.71;101011.06;5102829;28;20032;-84
2021/12/01 05:39:44;;;;;;;5.85;4.45;;;;;;;9.50;69.44;101056.59;5113257;28;20046;-85
2021/12/01 05:42:12;;;;;;;4.90;4.35;;;;;;;9.53;69.66;101053.28;5104600;28;20028;-85
2021/12/01 05:44:39;;;;;;;5.90;4.00;;;;;;;9.24;69.26;101004.53;5111919;28;20020;-85
2021/12/01 05:47:05;;;;;;;5.32;3.97;;;;;;;9.30;70.04;101026.66;5087726;28;20514;-86
2021/12/01 05:49:31;;;;;;;5.13;3.97;;;;;;;9.46;69.83;101065.03;5108562;28;20030;-85
2021/12/01 05:51:58;;;;;;;4.97;4.15;;;;;;;9.36;70.60;101060.03;5077780;28;20035;-86
2021/12/01 05:54:23;;;;;;;5.63;4.45;;;;;;;9.43;69.86;101063.94;5088126;28;20072;-86
2021/12/01 05:56:49;;;;;;;4.93;4.03;;;;;;;9.29;69.82;101057.81;5087649;28;20031;-86
2021/12/01 05:59:15;;;;;;;5.40;4.35;;;;;;;9.32;70.05;101061.53;5095522;28;20036;-85
2021/12/01 06:01:41;;;;;;;4.35;3.78;;;;;;;9.38;69.80;101050.63;5095469;28;20500;-87
2021/12/01 06:04:07;;;;;;;5.28;3.78;;;;;;;9.17;70.38;101032.78;5089570;28;20030;-87
2021/12/01 06:06:33;;;;;;;4.95;4.13;;;;;;;9.28;70.06;101037.78;5105046;28;20028;-90
2021/12/01 06:08:59;;;;;;;4.50;3.97;;;;;;;9.21;69.60;101028.69;5096124;28;20035;-88
2021/12/01 06:11:24;;;;;;;5.60;4.35;;;;;;;8.67;69.48;100920.19;5096410;28;20110;-87
2021/12/01 06:13:54;;;;;;;7.10;4.03;;;;;;;9.19;70.04;101009.47;5078682;28;20181;-86
2021/12/01 06:16:21;;;;;;;5.53;4.07;;;;;;;8.98;70.40;100988.16;5112689;28;20490;-87
2021/12/01 06:18:47;;;;;;;5.80;4.22;;;;;;;9.49;69.32;101046.06;5075337;28;20029;-88
2021/12/01 06:21:14;;;;;;;6.00;4.40;;;;;;;9.41;69.62;101057.72;5105432;28;20043;-86
2021/12/01 06:23:40;;;;;;;5.50;4.28;;;;;;;8.65;69.69;100945.22;5090248;28;20039;-85
2021/12/01 06:26:06;;;;;;;5.28;4.30;;;;;;;8.76;70.93;100981.56;5094514;28;20015;-84
2021/12/01 06:28:31;;;;;;;5.38;4.45;;;;;;;8.68;70.89;100974.97;5112689;28;20539;-84
2021/12/01 06:30:57;;;;;;;5.70;4.43;;;;;;;9.14;70.79;101040.44;5094906;27;20034;-84
2021/12/01 06:33:23;;;;;;;5.65;4.03;;;;;;;9.09;70.45;101027.91;5115502;27;20115;-86
2021/12/01 06:35:49;;;;;;;5.10;3.97;;;;;;;9.10;70.84;101042.72;5113747;28;20965;-88
2021/12/01 06:38:16;;;;;;;5.45;4.25;;;;;;;8.85;71.14;101022.03;5112397;28;20035;-87
2021/12/01 06:40:42;;;;;;;5.63;4.50;;;;;;;8.76;71.09;101005.00;5112082;28;20023;-87
2021/12/01 06:43:08;;;;;;;;;;;;;;;9.28;70.84;101071.66;5105009;28;20522;-86
2021/12/01 06:45:34;;;;;;;5.00;3.92;;;;;;;9.30;70.43;101077.88;5107916;28;19989;-84
2021/12/01 06:47:59;;;;;;;5.28;4.20;;;;;;;9.24;70.63;101073.16;5109051;28;20024;-84
2021/12/01 06:50:25;;;;;;;5.63;4.07;;;;;;;9.06;70.84;101046.84;5104447;28;20028;-85
2021/12/01 06:52:51;;;;;;;5.95;4.50;;;;;;;9.04;70.17;101025.00;5106362;28;20012;-85
2021/12/01 06:55:16;;;;;;;5.80;4.22;;;;;;;9.03;70.68;101038.81;5095083;28;20032;-85
2021/12/01 06:57:42;;;;;;;5.72;4.55;;;;;;;8.95;69.57;101003.56;5115673;27;20040;-85
2021/12/01 07:00:11;;;;;;;5.75;4.63;;;;;;;8.93;69.85;101032.13;5077869;28;20043;-84
2021/12/01 07:02:37;;;;;;;7.13;4.05;;;;;;;8.82;70.21;101027.91;5081879;28;20036;-85
2021/12/01 07:05:03;;;;;;;5.75;4.30;;;;;;;8.97;70.82;101061.88;5061164;28;20025;-85
2021/12/01 07:07:28;;;;;;;5.60;4.20;;;;;;;8.50;70.98;100989.38;5059605;28;20024;-85
2021/12/01 07:09:54;;;;;;;6.43;4.65;;;;;;;8.68;71.11;101023.53;5054366;28;20123;-85
2021/12/01 07:12:20;;;;;;;5.75;4.10;;;;;;;8.41;71.26;100975.78;5071788;28;20025;-86
2021/12/01 07:14:46;;;;;;;6.35;4.35;;;;;;;8.77;70.69;101031.94;5094139;28;20025;-86
2021/12/01 07:17:12;;;;;;;5.85;4.18;;;;;;;8.68;71.45;101036.56;5102715;27;20434;-86
2021/12/01 07:19:38;;;;;;;;;;;;;;;9.14;71.18;101092.53;5069452;28;20047;-87
2021/12/01 07:22:04;;;;;;;5.93;4.15;;;;;;;8.66;71.25;101018.22;5080331;28;19915;-86
2021/12/01 07:24:29;;;;;;;5.28;4.10;;;;;;;8.70;71.42;101024.50;5080895;28;20035;-86
2021/12/01 07:26:55;;;;;;;6.07;4.38;;;;;;;9.00;71.73;101093.34;5070213;28;20111;-86
2021/12/01 07:29:21;;;;;;;4.63;4.00;;;;;;;8.94;71.57;101088.63;5075833;28;20441;-86
2021/12/01 07:31:48;;;;;;;5.07;4.10;;;;;;;8.32;71.21;100965.63;5071377;28;20030;-85
2021/12/01 07:34:15;;;;;;;5.18;4.25;;;;;;;8.68;71.62;101037.44;5078518;28;20120;-86
2021/12/01 07:36:40;;;;;;;5.78;4.32;;;;;;;8.92;71.86;101098.03;5067846;28;20028;-85
2021/12/01 07:39:06;;;;;;;5.55;4.20;;;;;;;8.79;71.84;101064.19;5075873;28;20546;-85
2021/12/01 07:41:32;;;;;;;6.30;4.47;;;;;;;8.79;71.85;101050.28;5078233;28;20514;-85
2021/12/01 07:43:58;;;;;;;5.82;4.32;;;;;;;9.08;71.25;101099.03;5067056;28;20032;-85
2021/12/01 07:46:23;;;;;;;5.50;4.50;;;;;;;8.91;71.45;101066.69;5071388;28;20506;-85
2021/12/01 07:48:52;;;;;;;5.07;3.97;;;;;;;9.00;71.65;101095.94;5066879;28;20028;-85
2021/12/01 07:51:18;;;;;;;5.43;4.15;;;;;;;8.67;71.70;101029.53;5052556;28;20096;-85
2021/12/01 07:53:44;;;;;;;5.18;4.18;;;;;;;8.65;72.05;101038.94;5071555;28;20402;-85
2021/12/01 07:56:09;;;;;;;5.72;4.25;;;;;;;8.89;71.69;101096.91;5081438;28;20524;-85
2021/12/01 07:58:35;;;;;;;6.38;4.35;;;;;;;8.50;71.64;101021.50;5055841;28;20532;-85
2021/12/01 08:01:01;;;;;;;5.93;4.18;;;;;;;8.85;71.45;101063.69;5061599;28;20064;-86
2021/12/01 08:03:27;;;;;;;5.05;3.88;;;;;;;8.89;72.08;101082.22;5069374;28;20035;-84
2021/12/01 08:05:52;;;;;;;5.18;3.70;;;;;;;8.76;71.58;101063.97;5066418;28;20036;-85
2021/12/01 08:08:18;;;;;;;5.53;4.22;;;;;;;8.49;71.79;101013.63;5069514;28;20414;-86
2021/12/01 08:10:45;;;;;;;5.72;4.15;;;;;;;8.27;71.89;100970.50;5070079;28;20024;-86
2021/12/01 08:13:11;;;;;;;5.25;3.88;;;;;;;8.40;71.78;100973.91;5053507;28;20545;-86
2021/12/01 08:15:36;;;;;;;5.70;4.20;;;;;;;8.19;71.65;100929.16;5033404;28;20032;-86
2021/12/01 08:18:02;;;;;;;5.10;4.18;;;;;;;8.84;71.94;101052.34;5068609;28;20040;-84
2021/12/01 08:20:28;;;;;;;4.72;3.92;;;;;;;8.47;70.41;100948.44;5061656;28;20024;-85
2021/12/01 08:22:54;;;;;;;5.07;3.90;;;;;;;8.58;71.08;100962.16;5070860;28;20040;-85
2021/12/01 08:25:21;;;;;;;5.57;4.00;;;;;;;8.52;70.51;100959.16;5068906;28;20050;-84
2021/12/01 08:27:47;;;;;;;5.70;4.20;;;;;;;8.61;70.29;100964.03;5059058;28;20020;-84
2021/12/01 08:30:12;;;;;;;4.88;4.05;;;;;;;8.69;70.69;101004.50;5068834;28;20032;-85
2021/12/01 08:32:38;;;;;;;5.32;3.80;;;;;;;8.61;69.22;100956.22;5073873;28;20120;-86
2021/12/01 08:35:04;;;;;;;5.00;4.00;;;;;;;8.54;70.43;100960.16;5068822;28;20479;-84
2021/12/01 08:37:30;;;;;;;5.10;3.80;;;;;;;8.87;70.10;101025.59;5067146;28;20441;-86
2021/12/01 08:39:55;;;;;;;4.97;3.75;;;;;;;8.85;69.38;101033.34;5064494;28;20036;-85
2021/12/01 08:42:23;;;;;;;5.03;3.83;;;;;;;8.99;69.77;101044.63;5060493;28;20123;-87
2021/12/01 08:44:51;;;;;;;4.95;3.72;;;;;;;8.46;70.55;100977.84;5061162;28;20082;-86
2021/12/01 08:47:20;;;;;;;5.22;4.00;;;;;;;8.83;70.41;101049.69;5069185;28;20139;-86
2021/12/01 08:49:46;;;;;;;5.15;4.00;;;;;;;8.94;69.01;101065.19;5061872;28;20060;-85
2021/12/01 08:52:12;;;;;;;4.93;3.90;;;;;;;8.57;70.06;101030.59;5048791;28;20523;-85
2021/12/01 08:54:38;;;;;;;5.18;3.67;;;;;;;8.77;70.49;101066.69;5067229;28;20055;-85
2021/12/01 08:57:04;;;;;;;4.88;3.90;;;;;;;8.43;70.28;101008.00;5074763;28;20028;-86
2021/12/01 08:59:30;;;;;;;5.18;3.97;;;;;;;8.39;70.21;101005.97;5092500;28;20502;-85
2021/12/01 09:01:56;;;;;;;5.57;4.03;;;;;;;8.59;71.03;101052.44;5075093;28;20096;-86
2021/12/01 09:04:22;;;;;;;6.22;3.85;;;;;;;8.80;71.34;101084.19;5075416;28;20028;-85
2021/12/01 09:06:48;;;;;;;4.78;3.92;;;;;;;8.62;71.03;101065.69;5089917;28;20757;-86
2021/12/01 09:09:20;;;;;;;5.10;3.85;;;;;;;8.31;71.34;101008.94;5090881;28;20064;-86
2021/12/01 09:11:46;;;;;;;5.10;4.07;;;;;;;8.70;71.60;101061.88;5084423;28;20413;-84
2021/12/01 09:14:12;;;;;;;5.60;4.13;;;;;;;8.79;71.13;101069.41;5081073;28;20383;-87
2021/12/01 09:16:39;;;;;;;6.53;3.95;;;;;;;8.63;71.78;101054.44;5116803;28;20053;-86
2021/12/01 09:19:05;;;;;;;4.60;3.80;;;;;;;8.59;71.16;101022.91;5086577;28;20036;-86
2021/12/01 09:21:31;;;;;;;5.30;3.90;;;;;;;8.75;71.04;101043.94;5109883;28;20064;-85
2021/12/01 09:23:56;;;;;;;6.55;4.03;;;;;;;8.77;71.62;101039.75;5111328;28;20471;-86
2021/12/01 09:26:41;;;;;;;4.85;3.72;;;;;;;8.63;71.73;101014.50;5111031;28;20024;-85
2021/12/01 09:29:06;;;;;;;5.65;3.95;;;;;;;8.63;71.13;101004.09;5090706;28;20081;-85
2021/12/01 09:31:32;;;;;;;4.43;3.45;;;;;;;8.71;71.49;101016.81;5083267;28;20023;-86
2021/12/01 09:33:58;;;;;;;4.78;3.88;;;;;;;8.80;71.32;101019.09;5119011;28;20031;-85
2021/12/01 09:36:24;;;;;;;5.53;3.92;;;;;;;8.52;71.54;100986.06;5112623;28;20031;-85
2021/12/01 09:38:49;;;;;;;5.68;3.70;;;;;;;8.82;71.46;101033.13;5114641;28;20032;-85
2021/12/01 09:41:15;;;;;;;5.20;3.88;;;;;;;8.60;71.75;100997.00;5091910;28;20050;-85
2021/12/01 09:43:41;;;;;;;4.45;3.65;;;;;;;8.75;71.65;101020.53;5107889;28;20485;-84
2021/12/01 09:46:09;;;;;;;4.90;3.50;;;;;;;8.86;71.73;101031.63;5092615;28;20039;-83
2021/12/01 09:48:37;;;;;;;6.28;4.18;;;;;;;8.75;71.54;101020.53;5061233;28;20104;-85
2021/12/01 09:51:03;;;;;;;4.22;3.28;;;;;;;8.84;70.99;101007.19;5108207;28;20623;-85
2021/12/01 09:53:29;;;;;;;;;;;;;;;8.79;71.76;101032.94;5124507;28;20104;-83
2021/12/01 09:55:55;;;;;;;5.25;3.80;;;;;;;8.70;72.14;101015.03;5089325;28;20012;-84
2021/12/01 09:58:23;;;;;;;4.82;3.65;;;;;;;8.75;72.01;101021.41;5099899;28;20120;-84
2021/12/01 10:00:59;;;;;;;5.93;3.47;;;;;;;8.87;72.00;101015.19;5052088;28;20120;-83
2021/12/01 10:03:25;;;;;;;4.82;3.70;;;;;;;8.92;71.10;101004.28;5097321;28;20083;-83
2021/12/01 10:06:11;;;;;;;5.43;3.80;;;;;;;8.83;71.47;100998.50;5085022;28;20024;-83
2021/12/01 10:08:47;;;;;;;4.50;3.38;;;;;;;8.81;72.11;100994.88;5074457;28;20048;-84
2021/12/01 10:11:21;;;;;;;5.43;3.47;;;;;;;8.79;71.85;100999.09;5071106;28;20059;-85
2021/12/01 10:13:52;;;;;;;4.28;3.50;;;;;;;9.03;70.93;100998.84;5087157;28;20029;-84
2021/12/01 10:16:21;;;;;;;5.05;3.50;;;;;;;8.73;71.45;100963.13;5068076;28;20020;-85
2021/12/01 10:18:52;;;;;;;5.13;3.47;;;;;;;8.74;71.56;100970.16;5063232;28;20038;-84
2021/12/01 10:21:21;;;;;;;5.20;3.80;;;;;;;8.17;71.51;100866.66;5080119;28;20047;-83
2021/12/01 10:23:53;;;;;;;4.18;3.53;;;;;;;8.75;71.67;100973.66;5063231;28;20032;-86
2021/12/01 10:26:23;;;;;;;4.97;3.83;;;;;;;8.73;71.82;100967.44;5070989;28;20499;-84
2021/12/01 10:29:01;;;;;;;5.93;3.53;;;;;;;8.51;71.73;100927.03;5090380;28;20085;-84
2021/12/01 10:31:38;;;;;;;4.72;3.60;;;;;;;8.52;71.68;100921.00;5076506;28;20024;-83
2021/12/01 10:34:19;;;;;;;3.80;3.38;;;;;;;8.78;71.75;100963.41;5070369;28;20116;-85
2021/12/01 10:36:47;;;;;;;4.72;3.75;;;;;;;8.73;71.80;100962.25;5065624;28;20035;-85
2021/12/01 10:39:14;;;;;;;5.35;3.42;;;;;;;8.75;71.97;100977.16;5074530;28;20530;-82
2021/12/01 10:41:41;;;;;;;;;;;;;;;8.82;71.37;100967.13;5085831;28;20082;-83
2021/12/01 10:44:14;;;;;;;4.90;3.60;;;;;;;8.72;71.94;100963.94;5070935;28;19916;-84
2021/12/01 10:46:53;;;;;;;5.63;3.78;;;;;;;8.72;72.02;100973.44;5064535;28;20116;-83
2021/12/01 10:49:40;;;;;;;6.38;3.75;;;;;;;8.68;71.98;100967.16;5072238;28;20025;-84
2021/12/01 10:52:08;;;;;;;4.32;3.30;;;;;;;8.67;71.24;100954.03;5070812;28;20039;-84
2021/12/01 10:54:35;;;;;;;5.45;3.70;;;;;;;8.65;71.62;100948.72;5063843;28;20491;-85
2021/12/01 10:57:21;;;;;;;4.95;3.80;;;;;;;8.83;71.25;100968.94;5059452;28;20035;-85
2021/12/01 10:59:54;;;;;;;4.75;3.58;;;;;;;8.80;71.32;100968.72;5128286;27;20020;-83
2021/12/01 11:02:22;;;;;;;4.53;3.78;;;;;;;8.48;71.67;100929.41;5103197;28;20074;-83
2021/12/01 11:04:50;;;;;;;4.53;3.47;;;;;;;8.70;71.50;100969.84;5102599;27;20034;-84
2021/12/01 11:07:30;;;;;;;5.45;3.70;;;;;;;8.65;71.70;100953.91;5109440;27;20043;-84
2021/12/01 11:10:15;;;;;;;5.43;3.70;;;;;;;8.83;71.37;100963.75;5112514;28;20031;-84
2021/12/01 11:12:42;;;;;;;5.15;3.85;;;;;;;8.76;71.71;100962.41;5105471;28;20810;-85
2021/12/01 11:15:23;;;;;;;5.28;3.92;;;;;;;8.69;71.60;100952.44;5100561;28;20720;-83
2021/12/01 11:17:50;;;;;;;4.72;3.45;;;;;;;8.59;71.81;100942.22;5108546;28;20020;-85
2021/12/01 11:20:37;;;;;;;4.78;3.55;;;;;;;8.65;71.93;100961.72;5107607;28;20092;-85
2021/12/01 11:23:22;;;;;;;5.32;3.70;;;;;;;8.66;71.34;100958.34;5112456;28;20046;-84
2021/12/01 11:25:51;;;;;;;5.10;3.45;;;;;;;8.72;71.47;100960.41;5112668;28;20086;-87
2021/12/01 11:28:18;;;;;;;4.57;3.28;;;;;;;8.68;71.36;100924.63;5092488;28;20028;-87
2021/12/01 11:30:47;;;;;;;4.72;3.35;;;;;;;8.49;71.17;100894.78;5078670;28;20181;-87
2021/12/01 11:33:16;;;;;;;4.38;3.20;;;;;;;8.72;71.24;100942.19;5110974;28;20514;-88
2021/12/01 11:35:48;;;;;;;5.50;3.63;;;;;;;8.71;71.53;100937.81;5091261;28;20028;-88
2021/12/01 11:38:15;;;;;;;8.05;3.47;;;;;;;8.55;71.82;100902.06;5108116;27;20032;-87
2021/12/01 11:40:45;;;;;;;4.93;3.50;;;;;;;8.25;71.57;100860.22;5106932;28;20510;-88